createdAt,value
2022-09-04T00:01:02.358Z,56.07
2022-09-04T00:03:36.702Z,55.65
2022-09-04T00:06:09.605Z,55.73
2022-09-04T00:09:08.079Z,56.13
2022-09-04T00:11:45.045Z,55.91
2022-09-04T00:14:16.221Z,55.71
2022-09-04T00:16:47.331Z,55.82
2022-09-04T00:19:17.972Z,55.85
2022-09-04T00:21:50.733Z,55.91
2022-09-04T00:24:20.212Z,55.92
2022-09-04T00:26:54.379Z,55.86
2022-09-04T00:29:26.061Z,55.89
2022-09-04T00:31:56.480Z,55.76
2022-09-04T00:34:38.465Z,55.76
2022-09-04T00:37:09.180Z,55.87
2022-09-04T00:39:40.086Z,56.19
2022-09-04T00:42:16.584Z,55.88
2022-09-04T00:45:00.561Z,55.90
2022-09-04T00:47:43.937Z,55.99
2022-09-04T00:50:22.587Z,56.06
2022-09-04T00:53:00.484Z,56.15
2022-09-04T00:55:42.381Z,55.92
2022-09-04T00:58:32.703Z,56.01
2022-09-04T01:01:01.363Z,55.90
2022-09-04T01:03:37.128Z,55.98
2022-09-04T01:06:13.288Z,56.14
2022-09-04T01:08:56.287Z,55.76
2022-09-04T01:11:29.249Z,55.92
2022-09-04T01:14:00.837Z,56.25
2022-09-04T01:16:31.399Z,56.21
2022-09-04T01:19:02.139Z,56.27
2022-09-04T01:21:51.490Z,55.61
2022-09-04T01:24:30.460Z,55.73
2022-09-04T01:27:02.108Z,55.64
2022-09-04T01:29:34.835Z,55.97
2022-09-04T01:32:06.680Z,55.98
2022-09-04T01:34:43.824Z,55.81
2022-09-04T01:37:21.535Z,55.78
2022-09-04T01:39:55.704Z,55.63
2022-09-04T01:42:29.683Z,55.75
2022-09-04T01:44:58.088Z,55.99
2022-09-04T01:47:27.636Z,55.80
2022-09-04T01:49:58.916Z,55.89
2022-09-04T01:52:38.349Z,55.94
2022-09-04T01:55:14.104Z,55.92
2022-09-04T01:57:48.261Z,55.92
2022-09-04T02:00:17.419Z,55.80
2022-09-04T02:02:54.279Z,56.06
2022-09-04T02:05:25.985Z,55.96
2022-09-04T02:07:57.861Z,55.57
2022-09-04T02:10:31.537Z,56.05
2022-09-04T02:13:09.652Z,55.75
2022-09-04T02:15:43.368Z,55.96
2022-09-04T02:18:20.012Z,55.96
2022-09-04T02:20:51.756Z,55.84
2022-09-04T02:23:24.508Z,55.83
2022-09-04T02:25:56.032Z,55.73
2022-09-04T02:28:30.872Z,55.56
2022-09-04T02:31:03.795Z,55.74
2022-09-04T02:33:35.977Z,55.33
2022-09-04T02:36:10.290Z,55.97
2022-09-04T02:38:42.016Z,55.66
2022-09-04T02:41:13.212Z,55.66
2022-09-04T02:43:50.839Z,55.42
2022-09-04T02:46:23.043Z,55.85
2022-09-04T02:48:59.757Z,55.90
2022-09-04T02:51:47.681Z,55.62
2022-09-04T02:54:20.608Z,55.95
2022-09-04T02:56:53.767Z,55.67
2022-09-04T02:59:31.732Z,55.57
2022-09-04T03:02:01.534Z,55.71
2022-09-04T03:04:34.121Z,55.37
2022-09-04T03:07:06.379Z,55.26
2022-09-04T03:09:37.755Z,55.54
2022-09-04T03:12:11.162Z,55.63
2022-09-04T03:14:43.697Z,55.48
2022-09-04T03:17:14.669Z,55.65
2022-09-04T03:19:45.282Z,55.45
2022-09-04T03:22:16.241Z,55.78
2022-09-04T03:25:02.619Z,55.22
2022-09-04T03:27:32.665Z,55.57
2022-09-04T03:30:04.134Z,55.49
2022-09-04T03:32:36.584Z,55.52
2022-09-04T03:35:08.229Z,55.60
2022-09-04T03:37:48.046Z,55.49
2022-09-04T03:40:24.092Z,55.26
2022-09-04T03:43:00.004Z,55.34
2022-09-04T03:45:32.777Z,55.49
2022-09-04T03:48:08.412Z,55.41
2022-09-04T03:50:39.872Z,55.29
2022-09-04T03:53:10.876Z,55.16
2022-09-04T03:56:07.001Z,55.44
2022-09-04T03:58:38.310Z,55.32
2022-09-04T04:01:13.854Z,55.62
2022-09-04T04:03:57.872Z,55.62
2022-09-04T04:06:30.047Z,55.30
2022-09-04T04:09:20.977Z,55.30
2022-09-04T04:12:01.197Z,55.43
2022-09-04T04:14:38.551Z,55.23
2022-09-04T04:17:20.647Z,55.44
2022-09-04T04:19:54.859Z,55.19
2022-09-04T04:22:32.100Z,55.21
2022-09-04T04:25:06.780Z,55.29
2022-09-04T04:27:48.661Z,55.20
2022-09-04T04:30:17.731Z,55.19
2022-09-04T04:33:16.213Z,55.21
2022-09-04T04:35:48.325Z,55.23
2022-09-04T04:38:22.513Z,54.96
2022-09-04T04:41:16.044Z,55.16
2022-09-04T04:43:54.709Z,55.07
2022-09-04T04:46:27.235Z,55.30
2022-09-04T04:49:14.276Z,55.21
2022-09-04T04:52:10.547Z,55.02
2022-09-04T04:54:53.851Z,55.01
2022-09-04T04:57:31.827Z,54.86
2022-09-04T05:00:07.481Z,55.18
2022-09-04T05:02:38.958Z,54.73
2022-09-04T05:05:13.932Z,54.77
2022-09-04T05:07:43.903Z,54.94
2022-09-04T05:10:17.763Z,55.11
2022-09-04T05:12:54.757Z,54.67
2022-09-04T05:15:25.939Z,54.80
2022-09-04T05:17:56.123Z,55.18
2022-09-04T05:20:34.483Z,54.48
2022-09-04T05:23:10.407Z,55.00
2022-09-04T05:25:40.422Z,54.65
2022-09-04T05:28:14.627Z,55.17
2022-09-04T05:30:45.085Z,54.75
2022-09-04T05:33:16.747Z,54.16
2022-09-04T05:35:48.612Z,54.35
2022-09-04T05:38:22.671Z,54.32
2022-09-04T05:41:06.269Z,54.10
2022-09-04T05:44:25.204Z,53.78
2022-09-04T05:46:59.492Z,54.09
2022-09-04T05:49:34.921Z,53.91
2022-09-04T05:52:21.757Z,54.36
2022-09-04T05:55:12.500Z,54.43
2022-09-04T05:57:46.197Z,54.33
2022-09-04T06:00:16.136Z,54.19
2022-09-04T06:03:16.313Z,54.65
2022-09-04T06:06:09.989Z,54.17
2022-09-04T06:08:53.815Z,54.16
2022-09-04T06:11:42.395Z,54.29
2022-09-04T06:14:20.882Z,53.72
2022-09-04T06:16:59.451Z,54.28
2022-09-04T06:19:36.975Z,54.44
2022-09-04T06:22:12.002Z,54.34
2022-09-04T06:24:50.030Z,54.12
2022-09-04T06:27:31.209Z,54.53
2022-09-04T06:30:08.365Z,54.47
2022-09-04T06:33:04.126Z,54.60
2022-09-04T06:36:03.520Z,54.85
2022-09-04T06:38:41.278Z,54.69
2022-09-04T06:41:33.436Z,54.72
2022-09-04T06:44:04.333Z,54.97
2022-09-04T06:46:39.022Z,55.19
2022-09-04T06:49:11.180Z,54.83
2022-09-04T06:51:50.340Z,55.27
2022-09-04T06:54:25.555Z,54.96
2022-09-04T06:57:05.377Z,54.96
2022-09-04T06:59:43.790Z,55.32
2022-09-04T07:02:20.066Z,55.27
2022-09-04T07:04:55.287Z,55.14
2022-09-04T07:07:25.727Z,55.31
2022-09-04T07:09:59.889Z,55.70
2022-09-04T07:12:48.196Z,55.63
2022-09-04T07:15:48.247Z,55.48
2022-09-04T07:18:37.273Z,55.46
2022-09-04T07:21:08.199Z,55.66
2022-09-04T07:23:41.736Z,55.49
2022-09-04T07:26:19.327Z,55.45
2022-09-04T07:28:59.095Z,55.85
2022-09-04T07:31:32.388Z,55.56
2022-09-04T07:34:04.939Z,55.53
2022-09-04T07:36:35.784Z,55.43
2022-09-04T07:39:08.520Z,55.73
2022-09-04T07:41:43.186Z,56.18
2022-09-04T07:44:16.032Z,56.21
2022-09-04T07:46:47.800Z,56.00
2022-09-04T07:49:19.119Z,55.57
2022-09-04T07:51:49.999Z,56.06
2022-09-04T07:54:35.276Z,55.87
2022-09-04T07:57:25.969Z,55.79
2022-09-04T08:00:11.080Z,56.01
2022-09-04T08:03:01.777Z,56.12
2022-09-04T08:05:31.896Z,56.25
2022-09-04T08:08:22.340Z,56.63
2022-09-04T08:11:00.880Z,56.03
2022-09-04T08:13:37.404Z,56.31
2022-09-04T08:16:08.733Z,56.61
2022-09-04T08:18:53.189Z,56.57
2022-09-04T08:21:27.303Z,56.20
2022-09-04T08:24:07.238Z,56.29
2022-09-04T08:26:40.216Z,55.97
2022-09-04T08:29:19.668Z,56.02
2022-09-04T08:31:55.700Z,56.08
2022-09-04T08:34:48.611Z,56.10
2022-09-04T08:37:21.919Z,56.08
2022-09-04T08:39:54.372Z,55.97
2022-09-04T08:42:50.229Z,56.09
2022-09-04T08:46:00.873Z,56.20
2022-09-04T08:48:59.916Z,56.40
2022-09-04T08:51:59.708Z,56.24
2022-09-04T08:55:03.680Z,56.32
2022-09-04T08:57:59.433Z,56.50
2022-09-04T09:00:28.968Z,56.39
2022-09-04T09:03:25.329Z,56.41
2022-09-04T09:06:11.052Z,56.84
2022-09-04T09:09:21.579Z,56.31
2022-09-04T09:12:15.248Z,56.42
2022-09-04T09:15:30.413Z,56.81
2022-09-04T09:18:03.003Z,56.98
2022-09-04T09:20:32.253Z,56.52
2022-09-04T09:23:21.654Z,56.84
2022-09-04T09:25:56.920Z,56.95
2022-09-04T09:28:50.488Z,56.48
2022-09-04T09:31:57.649Z,56.66
2022-09-04T09:34:52.335Z,56.83
2022-09-04T09:37:31.623Z,57.06
2022-09-04T09:43:42.581Z,56.78
2022-09-04T09:46:50.669Z,56.64
2022-09-04T09:49:51.475Z,57.10
2022-09-04T09:52:40.537Z,56.81
2022-09-04T09:55:44.376Z,56.70
2022-09-04T09:58:25.404Z,57.00
2022-09-04T10:01:04.315Z,56.54
2022-09-04T10:03:44.626Z,56.71
2022-09-04T10:06:45.188Z,56.67
2022-09-04T10:09:45.097Z,56.96
2022-09-04T10:12:44.871Z,56.40
2022-09-04T10:15:54.588Z,56.96
2022-09-04T10:18:43.628Z,56.63
2022-09-04T10:21:48.132Z,56.86
2022-09-04T10:24:57.767Z,57.03
2022-09-04T10:28:01.165Z,56.65
2022-09-04T10:30:29.921Z,56.38
2022-09-04T10:33:23.138Z,56.89
2022-09-04T10:36:01.481Z,56.59
2022-09-04T10:38:59.847Z,56.38
2022-09-04T10:41:39.749Z,56.58
2022-09-04T10:44:30.384Z,56.54
2022-09-04T10:47:04.468Z,56.43
2022-09-04T10:49:57.241Z,56.65
2022-09-04T10:52:57.865Z,56.16
2022-09-04T10:55:36.424Z,56.56
2022-09-04T10:58:32.069Z,56.60
2022-09-04T11:01:14.466Z,56.65
2022-09-04T11:03:59.476Z,56.48
2022-09-04T11:07:01.286Z,56.91
2022-09-04T11:09:39.865Z,56.77
2022-09-04T11:12:37.876Z,56.47
2022-09-04T11:15:27.990Z,56.98
2022-09-04T11:18:14.216Z,56.54
2022-09-04T11:21:09.306Z,56.96
2022-09-04T11:24:25.810Z,56.64
2022-09-04T11:27:16.087Z,56.85
2022-09-04T11:30:03.643Z,56.37
2022-09-04T11:33:08.241Z,56.66
2022-09-04T11:35:59.888Z,56.74
2022-09-04T11:38:58.317Z,56.68
2022-09-04T11:42:03.960Z,56.76
2022-09-04T11:45:17.281Z,56.82
2022-09-04T11:48:06.644Z,56.80
2022-09-04T11:50:41.186Z,57.13
2022-09-04T11:53:30.295Z,56.77
2022-09-04T11:56:33.544Z,56.80
2022-09-04T11:59:23.488Z,56.32
2022-09-04T12:02:03.809Z,56.83
2022-09-04T12:04:55.940Z,56.67
2022-09-04T12:07:40.645Z,56.71
2022-09-04T12:10:31.203Z,56.70
2022-09-04T12:13:32.743Z,56.91
2022-09-04T12:16:15.297Z,56.61
2022-09-04T12:19:09.867Z,56.70
2022-09-04T12:22:00.484Z,56.67
2022-09-04T12:24:58.717Z,56.88
2022-09-04T12:27:47.912Z,57.14
2022-09-04T12:30:17.609Z,56.58
2022-09-04T12:33:08.513Z,56.93
2022-09-04T12:36:00.723Z,56.90
2022-09-04T12:39:04.174Z,56.69
2022-09-04T12:41:34.678Z,56.80
2022-09-04T12:44:08.781Z,56.79
2022-09-04T12:46:57.832Z,57.11
2022-09-04T12:49:43.880Z,57.02
2022-09-04T12:52:19.307Z,57.29
2022-09-04T12:54:53.112Z,57.23
2022-09-04T12:57:34.523Z,57.51
2022-09-04T13:00:07.488Z,57.47
2022-09-04T13:02:41.888Z,57.57
2022-09-04T13:05:30.216Z,57.66
2022-09-04T13:08:06.497Z,57.56
2022-09-04T13:10:39.452Z,57.56
2022-09-04T13:13:15.022Z,57.69
2022-09-04T13:15:48.854Z,57.62
2022-09-04T13:18:43.404Z,57.95
2022-09-04T13:21:25.424Z,58.30
2022-09-04T13:24:03.352Z,58.18
2022-09-04T13:26:52.547Z,58.04
2022-09-04T13:29:25.467Z,57.97
2022-09-04T13:32:00.745Z,58.17
2022-09-04T13:34:35.637Z,58.21
2022-09-04T13:37:07.748Z,57.78
2022-09-04T13:39:56.168Z,58.44
2022-09-04T13:42:52.127Z,58.14
2022-09-04T13:45:23.552Z,58.59
2022-09-04T13:47:54.729Z,58.18
2022-09-04T13:50:26.080Z,58.49
2022-09-04T13:52:58.142Z,58.15
2022-09-04T13:55:27.852Z,58.11
2022-09-04T13:58:01.672Z,58.42
2022-09-04T14:00:31.930Z,58.60
2022-09-04T14:03:01.981Z,58.40
2022-09-04T14:05:30.920Z,58.13
2022-09-04T14:08:02.455Z,58.35
2022-09-04T14:10:38.432Z,58.46
2022-09-04T14:13:12.735Z,58.34
2022-09-04T14:16:02.698Z,58.15
2022-09-04T14:19:08.790Z,58.38
2022-09-04T14:21:55.410Z,58.42
2022-09-04T14:24:26.055Z,58.24
2022-09-04T14:26:57.300Z,58.11
2022-09-04T14:29:31.319Z,58.30
2022-09-04T14:32:10.493Z,58.62
2022-09-04T14:34:44.212Z,58.63
2022-09-04T14:37:20.232Z,58.47
2022-09-04T14:39:49.596Z,58.14
2022-09-04T14:42:27.072Z,58.35
2022-09-04T14:45:06.173Z,58.54
2022-09-04T14:47:37.460Z,58.64
2022-09-04T14:50:08.283Z,58.46
2022-09-04T14:52:41.025Z,58.23
2022-09-04T14:55:10.999Z,58.42
2022-09-04T14:57:40.290Z,58.40
2022-09-04T15:00:14.914Z,58.26
2022-09-04T15:02:44.213Z,58.24
2022-09-04T15:05:19.825Z,58.27
2022-09-04T15:07:55.696Z,58.18
2022-09-04T15:10:27.017Z,58.40
2022-09-04T15:13:01.660Z,57.99
2022-09-04T15:15:33.453Z,58.14
2022-09-04T15:18:10.779Z,58.23
2022-09-04T15:20:39.630Z,58.18
2022-09-04T15:23:09.597Z,58.06
2022-09-04T15:25:58.903Z,58.10
2022-09-04T15:28:30.202Z,58.15
2022-09-04T15:31:06.351Z,58.03
2022-09-04T15:33:34.719Z,58.30
2022-09-04T15:36:08.503Z,58.36
2022-09-04T15:38:36.988Z,58.17
2022-09-04T15:41:17.164Z,58.12
2022-09-04T15:43:48.423Z,58.52
2022-09-04T15:46:26.177Z,58.55
2022-09-04T15:48:57.607Z,58.21
2022-09-04T15:51:29.752Z,58.40
2022-09-04T15:54:13.804Z,58.26
2022-09-04T15:56:45.515Z,58.30
2022-09-04T15:59:14.932Z,58.16
2022-09-04T16:01:48.622Z,58.39
2022-09-04T16:04:23.252Z,58.06
2022-09-04T16:06:54.617Z,58.04
2022-09-04T16:09:25.799Z,58.35
2022-09-04T16:11:59.829Z,57.90
2022-09-04T16:14:29.263Z,57.69
2022-09-04T16:17:00.473Z,58.06
2022-09-04T16:19:30.364Z,57.98
2022-09-04T16:22:07.116Z,58.26
2022-09-04T16:24:36.717Z,58.09
2022-09-04T16:27:07.189Z,57.46
2022-09-04T16:29:36.659Z,58.04
2022-09-04T16:32:09.794Z,57.86
2022-09-04T16:34:40.881Z,58.12
2022-09-04T16:37:12.997Z,57.71
2022-09-04T16:39:50.612Z,58.34
2022-09-04T16:42:22.120Z,58.38
2022-09-04T16:44:52.480Z,58.39
2022-09-04T16:47:24.546Z,58.03
2022-09-04T16:49:56.700Z,58.07
2022-09-04T16:52:54.909Z,58.39
2022-09-04T16:55:47.540Z,58.24
2022-09-04T16:58:34.792Z,58.05
2022-09-04T17:01:09.097Z,58.13
2022-09-04T17:03:50.300Z,58.43
2022-09-04T17:06:24.820Z,57.33
2022-09-04T17:08:57.247Z,58.13
2022-09-04T17:11:32.048Z,58.03
2022-09-04T17:14:08.388Z,58.04
2022-09-04T17:16:52.567Z,57.91
2022-09-04T17:19:22.200Z,58.07
2022-09-04T17:28:54.429Z,58.19
2022-09-04T17:29:14.874Z,58.01
2022-09-04T17:29:17.347Z,58.29
2022-09-04T17:31:16.516Z,58.05
2022-09-04T17:39:44.283Z,58.11
2022-09-04T17:40:43.404Z,57.94
2022-09-04T17:40:53.607Z,58.35
2022-09-04T17:42:21.197Z,57.87
2022-09-04T17:44:50.942Z,58.06
2022-09-04T17:47:24.580Z,57.96
2022-09-04T17:49:53.481Z,58.12
2022-09-04T17:52:26.896Z,58.05
2022-09-04T17:54:57.536Z,58.11
2022-09-04T17:57:31.601Z,57.83
2022-09-04T18:00:02.698Z,58.00
2022-09-04T18:02:37.452Z,57.85
2022-09-04T18:05:14.825Z,57.99
2022-09-04T18:08:08.291Z,57.96
2022-09-04T18:10:43.263Z,57.90
2022-09-04T18:13:36.347Z,57.75
2022-09-04T18:16:10.783Z,58.08
2022-09-04T18:18:39.738Z,58.28
2022-09-04T18:21:11.747Z,57.98
2022-09-04T18:23:51.300Z,58.00
2022-09-04T18:26:24.648Z,58.03
2022-09-04T18:28:59.011Z,58.27
2022-09-04T18:37:11.131Z,58.32
2022-09-04T18:37:25.322Z,58.02
2022-09-04T18:37:45.787Z,58.32
2022-09-04T18:40:08.694Z,58.16
2022-09-04T18:50:24.093Z,58.36
2022-09-04T18:50:43.483Z,58.24
2022-09-04T18:50:45.996Z,58.18
2022-09-04T18:51:25.242Z,57.76
2022-09-04T18:53:55.535Z,58.09
2022-09-04T18:56:27.798Z,58.25
2022-09-04T18:58:59.097Z,58.33
2022-09-04T19:01:29.295Z,58.27
2022-09-04T19:03:58.554Z,58.27
2022-09-04T19:06:35.313Z,58.31
2022-09-04T19:09:09.274Z,58.45
2022-09-04T19:11:42.589Z,58.22
2022-09-04T19:14:12.254Z,58.33
2022-09-04T19:16:41.647Z,58.75
2022-09-04T19:19:17.158Z,58.67
2022-09-04T19:21:58.406Z,58.52
2022-09-04T19:24:34.401Z,58.52
2022-09-04T19:27:28.892Z,58.26
2022-09-04T19:30:17.789Z,58.38
2022-09-04T19:33:00.373Z,58.55
2022-09-04T19:35:32.389Z,58.59
2022-09-04T19:42:04.720Z,58.49
2022-09-04T19:46:04.886Z,58.49
2022-09-04T19:46:09.597Z,58.59
2022-09-04T19:46:43.737Z,58.70
2022-09-04T19:50:30.946Z,58.54
2022-09-04T19:53:36.039Z,58.25
2022-09-04T19:55:22.968Z,58.59
2022-09-04T19:57:46.022Z,58.56
2022-09-04T20:00:42.412Z,58.23
2022-09-04T20:03:30.229Z,58.53
2022-09-04T20:06:07.731Z,58.82
2022-09-04T20:08:51.457Z,58.55
2022-09-04T20:11:35.185Z,58.80
2022-09-04T20:14:13.524Z,59.02
2022-09-04T20:16:48.342Z,58.49
2022-09-04T20:19:28.073Z,58.55
2022-09-04T20:21:59.924Z,58.44
2022-09-04T20:24:30.860Z,58.85
2022-09-04T20:27:00.783Z,58.53
2022-09-04T20:29:31.399Z,58.42
2022-09-04T20:32:04.317Z,58.61
2022-09-04T20:34:38.999Z,58.55
2022-09-04T20:37:31.921Z,58.94
2022-09-04T20:40:17.883Z,58.76
2022-09-04T20:42:56.264Z,58.79
2022-09-04T20:48:51.097Z,58.50
2022-09-04T20:52:52.241Z,58.58
2022-09-04T20:52:53.679Z,58.86
2022-09-04T20:54:29.662Z,58.59
2022-09-04T21:00:36.604Z,58.60
2022-09-04T21:03:08.612Z,58.46
2022-09-04T21:03:20.215Z,58.93
2022-09-04T21:05:47.419Z,58.80
2022-09-04T21:08:19.912Z,58.61
2022-09-04T21:10:50.672Z,58.65
2022-09-04T21:13:20.387Z,58.64
2022-09-04T21:15:51.699Z,58.73
2022-09-04T21:18:35.788Z,58.56
2022-09-04T21:21:15.532Z,58.47
2022-09-04T21:24:19.400Z,58.56
2022-09-04T21:27:02.672Z,58.20
2022-09-04T21:29:49.344Z,58.52
2022-09-04T21:32:32.155Z,58.32
2022-09-04T21:35:06.330Z,58.55
2022-09-04T21:37:42.284Z,58.77
2022-09-04T21:40:42.221Z,58.24
2022-09-04T21:43:21.711Z,57.97
2022-09-04T21:45:58.776Z,58.45
2022-09-04T21:48:41.543Z,58.26
2022-09-04T21:51:28.532Z,58.25
2022-09-04T21:54:38.105Z,58.20
2022-09-04T22:02:26.172Z,58.58
2022-09-04T22:02:37.962Z,58.22
2022-09-04T22:03:36.688Z,58.33
2022-09-04T22:06:10.051Z,58.18
2022-09-04T22:13:26.272Z,58.44
2022-09-04T22:13:39.582Z,58.22
2022-09-04T22:14:51.790Z,58.16
2022-09-04T22:17:39.131Z,58.26
2022-09-04T22:20:25.548Z,58.19
2022-09-04T22:23:39.100Z,57.98
2022-09-04T22:26:24.100Z,58.04
2022-09-04T22:29:10.353Z,58.45
2022-09-04T22:31:59.397Z,58.06
2022-09-04T22:34:59.852Z,58.01
2022-09-04T22:38:00.711Z,57.78
2022-09-04T22:40:32.376Z,58.01
2022-09-04T22:43:12.941Z,58.01
2022-09-04T22:46:09.988Z,57.75
2022-09-04T22:49:13.043Z,57.95
2022-09-04T22:52:24.952Z,57.60
2022-09-04T22:54:59.051Z,57.90
2022-09-04T22:57:31.819Z,57.97
2022-09-04T23:00:12.189Z,57.89
2022-09-04T23:03:09.240Z,57.93
2022-09-04T23:06:08.848Z,58.02
2022-09-04T23:13:48.168Z,57.73
2022-09-04T23:13:52.747Z,57.56
2022-09-04T23:14:48.233Z,57.71
2022-09-04T23:17:24.065Z,57.76
2022-09-04T23:26:39.013Z,57.74
2022-09-04T23:26:47.560Z,57.58
2022-09-04T23:27:01.603Z,57.33
2022-09-04T23:29:45.060Z,57.54
2022-09-04T23:32:33.212Z,57.66
2022-09-04T23:35:14.370Z,57.59
2022-09-04T23:38:01.968Z,57.53
2022-09-04T23:40:35.839Z,57.27
2022-09-04T23:43:38.756Z,57.47
2022-09-04T23:46:29.640Z,57.26
2022-09-04T23:49:07.345Z,57.72
2022-09-04T23:51:40.953Z,57.37
2022-09-04T23:54:25.791Z,57.29
2022-09-04T23:56:55.564Z,57.56
2022-09-04T23:59:37.969Z,57.51
